Benito, Canada
Current Conditions -  °F | °C
As of 9:00 AM on Tuesday 21 Oct 2014 (Local Time) from CYQV Reporting Station
Clear Clear  
Wind Chill: 35°   Ceiling: Unl
Heat Index: 43°   Visibility: 9mi
Dew Point: 36°   Wind: 15mph
Humidity: 76%   Direction: 160°SSE
Pressure: 29.73"   Gusts: NA
Location:  51.92°N, 101.55°W
Report Text: CYQV 211400Z AUTO 16013KT 9SM CLR 06/02 A2973 RMK SLP078
Loading
Personal Weather Stations






























Interactive Weather Map
Tropical Storm Tracking
New forecast layout! Learn more

10-Day Weather Forecast

Advertisements
Track Severe Weather on mobile